Time;durP1;ratioP1;P1;durP2;ratioP2;P2;SDS_P1;SDS_P2;PMS_P1;PMS_P2;Temp;Humidity;BMP_temperature;BMP_pressure;BME280_temperature;BME280_humidity;BME280_pressure;Samples;Min_cycle;Max_cycle;Signal;HPM_P1;HPM_P2
2023/06/20 00:00:18;;;;;;;0.00;0.00;;;;;;;17.24;75.37;99739.47;5066078;28;20407;-70
2023/06/20 00:02:44;;;;;;;0.00;0.00;;;;;;;17.25;74.95;99733.59;5057644;28;20036;-70
2023/06/20 00:05:09;;;;;;;0.00;0.00;;;;;;;17.30;74.52;99729.84;5035825;28;20489;-70
2023/06/20 00:07:34;;;;;;;0.00;0.00;;;;;;;17.28;74.96;99719.13;5080653;28;20040;-70
2023/06/20 00:10:00;;;;;;;0.00;0.00;;;;;;;17.28;74.77;99715.56;5040088;28;20098;-72
2023/06/20 00:12:25;;;;;;;0.00;0.00;;;;;;;17.26;74.96;99707.59;5069282;28;20058;-70
2023/06/20 00:14:51;;;;;;;0.00;0.00;;;;;;;17.31;74.84;99703.06;5040035;28;20102;-70
2023/06/20 00:17:16;;;;;;;0.00;0.00;;;;;;;17.38;74.33;99714.41;5073846;28;20034;-72
2023/06/20 00:19:42;;;;;;;0.00;0.00;;;;;;;17.35;74.56;99695.75;5060859;28;20028;-72
2023/06/20 00:22:07;;;;;;;0.00;0.00;;;;;;;17.30;74.43;99685.66;5068595;28;20028;-72
2023/06/20 00:24:32;;;;;;;0.00;0.00;;;;;;;17.40;74.63;99695.53;5087000;28;20483;-70
2023/06/20 00:27:02;;;;;;;0.00;0.00;;;;;;;17.45;74.12;99685.13;5082061;28;21754;-72
2023/06/20 00:29:28;;;;;;;0.00;0.00;;;;;;;17.52;74.57;99684.63;5047196;28;20043;-71
2023/06/20 00:31:53;;;;;;;0.00;0.00;;;;;;;17.57;74.00;99692.72;5049607;28;20063;-71
2023/06/20 00:34:18;;;;;;;0.00;0.00;;;;;;;17.59;74.24;99682.13;5059105;28;20089;-71
2023/06/20 00:36:44;;;;;;;0.00;0.00;;;;;;;17.60;73.80;99682.97;5071846;28;20436;-72
2023/06/20 00:39:10;;;;;;;0.00;0.00;;;;;;;17.59;73.94;99676.59;5068403;28;20322;-71
2023/06/20 00:41:36;;;;;;;0.00;0.00;;;;;;;17.60;73.68;99671.91;5073809;28;20056;-72
2023/06/20 00:44:03;;;;;;;0.00;0.00;;;;;;;17.60;73.99;99671.91;5070062;28;20060;-72
2023/06/20 00:46:35;;;;;;;0.00;0.00;;;;;;;17.51;73.72;99658.13;5067672;28;20036;-71
2023/06/20 00:49:05;;;;;;;0.00;0.00;;;;;;;17.51;73.52;99652.59;5066335;28;20031;-72
2023/06/20 00:51:31;;;;;;;0.00;0.00;;;;;;;17.52;73.64;99654.22;5056429;28;20439;-71
2023/06/20 00:53:57;;;;;;;0.00;0.00;;;;;;;17.48;73.89;99656.03;5071487;28;20040;-71
2023/06/20 00:56:26;;;;;;;0.00;0.00;;;;;;;17.41;73.88;99652.97;5048398;28;20039;-71
2023/06/20 00:58:52;;;;;;;0.00;0.00;;;;;;;17.36;74.02;99639.31;5075786;28;20028;-71
2023/06/20 01:01:19;;;;;;;0.00;0.00;;;;;;;17.29;73.99;99637.06;5054002;28;20035;-72
2023/06/20 01:03:46;;;;;;;0.00;0.00;;;;;;;17.26;73.90;99637.75;5088689;28;20070;-71
2023/06/20 01:06:20;;;;;;;0.00;0.00;;;;;;;17.20;74.65;99631.56;5061599;28;20028;-71
2023/06/20 01:09:13;;;;;;;0.00;0.00;;;;;;;17.17;74.25;99621.19;5065250;28;20020;-71
2023/06/20 01:12:03;;;;;;;0.00;0.00;;;;;;;17.21;74.10;99622.13;5058378;28;20035;-72
2023/06/20 01:14:42;;;;;;;0.00;0.00;;;;;;;17.20;74.19;99603.94;5062569;28;20043;-71
2023/06/20 01:17:19;;;;;;;0.00;0.00;;;;;;;17.26;73.93;99613.66;5094255;28;20118;-71
2023/06/20 01:20:07;;;;;;;0.00;0.00;;;;;;;17.25;73.85;99612.03;5085360;28;20074;-71
2023/06/20 01:22:57;;;;;;;0.00;0.00;;;;;;;17.30;73.77;99618.53;5083342;28;20421;-70
2023/06/20 01:25:33;;;;;;;0.00;0.00;;;;;;;17.29;74.23;99617.72;5078332;28;20641;-71
2023/06/20 01:28:09;;;;;;;0.00;0.00;;;;;;;17.27;74.04;99607.00;5096718;28;20370;-73
2023/06/20 01:31:11;;;;;;;0.00;0.00;;;;;;;17.31;73.73;99606.34;5088855;28;20466;-71
2023/06/20 01:33:53;;;;;;;0.00;0.00;;;;;;;17.32;73.56;99594.13;5057018;28;20040;-71
2023/06/20 01:36:21;;;;;;;0.00;0.00;;;;;;;17.32;73.96;99589.44;5079631;28;20143;-70
2023/06/20 01:38:49;;;;;;;0.00;0.00;;;;;;;17.33;73.79;99587.47;5067044;28;20036;-70
2023/06/20 01:41:19;;;;;;;0.00;0.00;;;;;;;17.35;74.20;99590.72;5085500;28;20023;-70
2023/06/20 01:43:48;;;;;;;0.00;0.00;;;;;;;17.38;73.74;99592.81;5077368;28;20035;-70
2023/06/20 01:46:15;;;;;;;0.00;0.00;;;;;;;17.39;73.92;99588.91;5090419;28;20035;-70
2023/06/20 01:48:42;;;;;;;0.00;0.00;;;;;;;17.36;74.07;99582.09;5090567;28;20016;-70
2023/06/20 01:51:07;;;;;;;0.00;0.00;;;;;;;17.38;73.93;99587.31;5082577;28;20783;-72
2023/06/20 01:53:35;;;;;;;0.00;0.00;;;;;;;17.40;74.19;99590.53;5081517;28;20043;-72
2023/06/20 01:56:03;;;;;;;0.00;0.00;;;;;;;17.37;73.76;99586.47;5082346;28;20078;-71
2023/06/20 01:58:30;;;;;;;0.00;0.00;;;;;;;17.44;73.41;99585.97;5067141;28;20020;-71
2023/06/20 02:00:57;;;;;;;0.00;0.00;;;;;;;17.47;73.38;99579.78;5071902;28;20061;-71
2023/06/20 02:03:26;;;;;;;0.00;0.00;;;;;;;17.47;73.98;99568.72;5106968;27;20043;-71
2023/06/20 02:05:57;;;;;;;0.00;0.00;;;;;;;17.50;73.84;99562.50;5084858;28;20035;-72
2023/06/20 02:08:24;;;;;;;0.00;0.00;;;;;;;17.61;73.76;99574.81;5079106;28;20027;-72
2023/06/20 02:10:51;;;;;;;0.00;0.00;;;;;;;17.63;73.46;99569.75;5076214;28;20126;-71
2023/06/20 02:13:18;;;;;;;0.00;0.00;;;;;;;17.69;73.85;99580.63;5050895;28;20107;-72
2023/06/20 02:15:45;;;;;;;0.00;0.00;;;;;;;17.70;73.39;99560.16;5077020;28;20135;-73
2023/06/20 02:18:11;;;;;;;0.00;0.00;;;;;;;17.71;72.90;99556.22;5092389;28;20031;-71
2023/06/20 02:20:37;;;;;;;0.00;0.00;;;;;;;17.77;73.53;99555.69;5049983;28;20024;-71
2023/06/20 02:23:07;;;;;;;0.00;0.00;;;;;;;17.85;73.18;99539.38;5091453;28;20032;-71
2023/06/20 02:25:35;;;;;;;0.00;0.00;;;;;;;17.92;73.34;99534.94;5096259;28;20458;-73
2023/06/20 02:28:02;;;;;;;0.00;0.00;;;;;;;18.01;73.15;99531.31;5059009;28;20016;-71
2023/06/20 02:30:30;;;;;;;0.00;0.00;;;;;;;18.04;73.44;99541.69;5064748;28;20027;-72
2023/06/20 02:32:58;;;;;;;0.00;0.00;;;;;;;17.98;73.95;99532.78;5096217;28;20024;-72
2023/06/20 02:35:25;;;;;;;0.00;0.00;;;;;;;17.96;74.16;99546.16;5094919;28;20026;-72
2023/06/20 02:37:54;;;;;;;0.00;0.00;;;;;;;17.88;74.23;99561.63;5074184;28;20036;-73
2023/06/20 02:40:24;;;;;;;0.00;0.00;;;;;;;17.90;74.31;99584.28;5083839;28;20047;-72
2023/06/20 02:42:50;;;;;;;0.00;0.00;;;;;;;17.89;74.11;99588.16;5083111;28;20777;-72
2023/06/20 02:45:15;;;;;;;0.00;0.00;;;;;;;17.83;74.48;99559.06;5100422;27;20127;-71
2023/06/20 02:48:17;;;;;;;0.00;0.00;;;;;;;17.77;74.55;99532.75;5094750;28;20467;-71
2023/06/20 02:51:29;;;;;;;0.00;0.00;;;;;;;17.59;75.46;99521.81;5078166;28;20027;-73
2023/06/20 02:54:23;;;;;;;0.00;0.00;;;;;;;17.35;76.43;99502.31;5001460;28;21028;-77
2023/06/20 02:56:55;;;;;;;0.00;0.00;;;;;;;17.18;76.98;99484.66;5027601;28;20068;-75
2023/06/20 02:59:32;;;;;;;0.00;0.00;;;;;;;17.16;77.22;99494.44;5058032;28;20036;-76
2023/06/20 03:05:15;;;;;;;0.00;0.00;;;;;;;17.15;77.76;99490.88;5087841;28;20043;-77
2023/06/20 03:07:42;;;;;;;0.00;0.00;;;;;;;17.07;78.78;99464.13;5071469;28;20455;-78
2023/06/20 03:10:22;;;;;;;0.00;0.00;;;;;;;16.98;79.37;99463.34;5056952;28;20028;-77
2023/06/20 03:12:50;;;;;;;0.00;0.00;;;;;;;17.19;79.27;99469.72;5071397;28;20035;-77
2023/06/20 03:15:16;;;;;;;0.00;0.00;;;;;;;17.18;79.84;99465.31;5086026;28;20028;-78
2023/06/20 03:17:43;;;;;;;0.00;0.00;;;;;;;17.15;80.05;99457.72;5047200;28;20028;-76
2023/06/20 03:20:17;;;;;;;0.00;0.00;;;;;;;16.93;80.49;99418.19;5074712;28;20087;-77
2023/06/20 03:22:42;;;;;;;0.00;0.00;;;;;;;17.07;80.94;99439.25;5084120;28;20024;-77
2023/06/20 03:25:08;;;;;;;0.00;0.00;;;;;;;17.01;80.89;99446.09;5073678;28;20032;-77
2023/06/20 03:27:33;;;;;;;0.00;0.00;;;;;;;16.90;81.68;99413.34;5090296;28;20032;-78
2023/06/20 03:30:04;;;;;;;0.00;0.00;;;;;;;16.89;81.62;99413.66;5110289;27;20027;-76
2023/06/20 03:32:47;;;;;;;0.00;0.00;;;;;;;17.00;81.71;99427.94;5074820;28;20077;-77
2023/06/20 03:36:09;;;;;;;0.00;0.00;;;;;;;16.89;82.38;99400.69;5105003;28;20397;-77
2023/06/20 03:41:49;;;;;;;0.00;0.00;;;;;;;16.88;82.63;99376.97;5040935;28;20430;-76
2023/06/20 03:44:34;;;;;;;0.00;0.00;;;;;;;16.79;83.22;99373.41;5102402;27;20123;-76
2023/06/20 03:47:07;;;;;;;0.00;0.00;;;;;;;16.79;83.59;99367.88;5080928;28;20028;-76
2023/06/20 03:49:37;;;;;;;0.00;0.00;;;;;;;16.65;83.87;99348.03;5100245;28;20100;-76
2023/06/20 03:52:05;;;;;;;0.00;0.00;;;;;;;16.71;84.13;99350.25;5066820;28;20121;-76
2023/06/20 03:54:31;;;;;;;0.00;0.00;;;;;;;16.64;84.03;99354.66;5090200;28;20088;-75
2023/06/20 03:56:56;;;;;;;0.00;0.00;;;;;;;16.82;84.26;99383.81;5067557;28;20035;-75
2023/06/20 03:59:25;;;;;;;0.00;0.00;;;;;;;16.69;84.27;99374.63;5085257;28;20050;-76
2023/06/20 04:01:50;;;;;;;0.00;0.00;;;;;;;16.70;84.36;99370.69;5087104;28;20410;-75
2023/06/20 04:04:16;;;;;;;0.00;0.00;;;;;;;16.65;84.08;99378.38;5093353;28;20079;-75
2023/06/20 04:06:48;;;;;;;0.00;0.00;;;;;;;16.52;84.16;99369.97;5073640;28;20031;-74
2023/06/20 04:09:29;;;;;;;;;;;;;;;;;;;;;
2023/06/20 04:11:58;;;;;;;0.00;0.00;;;;;;;16.58;84.77;99374.16;5066005;28;20378;-74
2023/06/20 04:17:09;;;;;;;0.00;0.00;;;;;;;16.47;85.26;99350.03;5052025;28;20119;-73
2023/06/20 04:19:36;;;;;;;0.00;0.00;;;;;;;16.31;85.76;99374.59;5087111;28;20114;-74
2023/06/20 04:22:04;;;;;;;0.00;0.00;;;;;;;16.12;85.92;99395.13;5084696;28;20059;-75
2023/06/20 04:24:44;;;;;;;0.00;0.00;;;;;;;16.26;86.77;99449.28;5070178;28;20016;-76
2023/06/20 04:27:39;;;;;;;0.00;0.00;;;;;;;16.01;87.32;99421.41;5073433;28;20029;-77
2023/06/20 04:30:05;;;;;;;0.00;0.00;;;;;;;15.80;87.87;99382.69;5063199;28;20082;-76
2023/06/20 04:33:18;;;;;;;0.00;0.00;;;;;;;15.71;89.53;99374.38;5058555;28;20032;-76
2023/06/20 04:39:49;;;;;;;0.00;0.00;;;;;;;15.41;90.10;99343.16;5066398;28;20072;-76
2023/06/20 04:45:50;;;;;;;0.00;0.00;;;;;;;15.40;91.28;99369.88;4996132;28;20163;-74
2023/06/20 04:48:35;;;;;;;;;;;;;;;;;;;;;
2023/06/20 04:51:35;;;;;;;;;;;;;;;15.52;92.72;99403.09;5077480;28;20020;-76
2023/06/20 04:54:03;;;;;;;0.00;0.00;;;;;;;15.23;92.89;99369.88;5037429;28;19915;-76
2023/06/20 04:57:17;;;;;;;0.00;0.00;;;;;;;15.16;93.70;99384.94;5079556;28;20119;-76
2023/06/20 05:00:02;;;;;;;0.00;0.00;;;;;;;15.38;94.08;99416.22;5078430;28;20031;-77
2023/06/20 05:02:28;;;;;;;0.00;0.00;;;;;;;15.41;94.60;99432.09;5072012;28;20016;-77
2023/06/20 05:04:54;;;;;;;0.00;0.00;;;;;;;15.34;94.37;99409.72;5094712;28;20059;-77
2023/06/20 05:07:21;;;;;;;0.00;0.00;;;;;;;15.32;94.63;99390.78;5095897;28;20046;-77
2023/06/20 05:09:49;;;;;;;0.00;0.00;;;;;;;15.33;94.73;99380.56;5085375;28;20039;-78
2023/06/20 05:12:17;;;;;;;0.00;0.00;;;;;;;15.32;94.81;99389.97;5069648;28;20034;-80
2023/06/20 05:14:43;;;;;;;0.00;0.00;;;;;;;15.43;95.35;99410.53;5049387;28;20087;-78
2023/06/20 05:17:08;;;;;;;0.00;0.00;;;;;;;15.25;95.01;99384.13;5089425;28;20051;-75
2023/06/20 05:20:04;;;;;;;0.00;0.00;;;;;;;15.22;95.35;99390.28;5061610;28;20030;-76
2023/06/20 05:25:57;;;;;;;;;;;;;;;;;;;;;
2023/06/20 05:29:14;;;;;;;;;;;;;;;;;;;;;
2023/06/20 05:35:46;;;;;;;0.00;0.00;;;;;;;15.44;95.90;99376.34;4978972;28;20812;-78
2023/06/20 05:42:00;;;;;;;;;;;;;;;;;;;;;
2023/06/20 05:48:25;;;;;;;0.00;0.00;;;;;;;15.66;93.69;99336.00;4894546;29;20036;-78
2023/06/20 05:51:44;;;;;;;;;;;;;;;;;;;;;
2023/06/20 05:57:54;;;;;;;0.00;0.00;;;;;;;15.95;91.88;99340.81;4879167;29;20419;-75
2023/06/20 06:00:21;;;;;;;0.00;0.00;;;;;;;16.20;91.99;99363.94;4936638;28;21743;-76
2023/06/20 06:02:46;;;;;;;0.00;0.00;;;;;;;16.18;91.40;99349.69;4934103;29;20035;-77
2023/06/20 06:05:17;;;;;;;0.00;0.00;;;;;;;16.31;90.85;99333.22;4980977;28;20057;-79
2023/06/20 06:07:47;;;;;;;0.00;0.00;;;;;;;16.51;90.69;99340.75;4985109;28;20156;-78
2023/06/20 06:10:18;;;;;;;0.00;0.00;;;;;;;16.53;89.94;99323.91;4992071;28;20069;-79
2023/06/20 06:12:44;;;;;;;0.00;0.00;;;;;;;16.60;89.78;99304.03;5050931;28;20044;-80
2023/06/20 06:15:14;;;;;;;0.00;0.00;;;;;;;16.71;89.22;99308.03;5109904;28;20031;-78
2023/06/20 06:18:08;;;;;;;0.00;0.00;;;;;;;16.97;88.64;99327.22;5106629;27;20786;-81
2023/06/20 06:20:45;;;;;;;0.00;0.00;;;;;;;17.05;88.05;99312.53;5100954;28;20080;-77
2023/06/20 06:23:13;;;;;;;0.00;0.00;;;;;;;17.06;87.00;99289.28;5084024;28;20035;-76
2023/06/20 06:25:38;;;;;;;0.00;0.00;;;;;;;17.28;86.27;99304.69;5095348;27;20107;-77
2023/06/20 06:28:04;;;;;;;0.00;0.00;;;;;;;17.27;86.05;99281.00;5087100;28;20166;-78
2023/06/20 06:30:36;;;;;;;0.00;0.00;;;;;;;17.49;85.69;99312.16;5093002;28;20069;-78
2023/06/20 06:33:02;;;;;;;0.00;0.00;;;;;;;17.62;85.28;99315.78;5072384;28;20032;-79
2023/06/20 06:35:31;;;;;;;0.00;0.00;;;;;;;17.93;84.83;99314.50;5080039;28;20407;-79
2023/06/20 06:38:05;;;;;;;0.00;0.00;;;;;;;18.11;83.81;99304.84;5085047;28;20072;-79
2023/06/20 06:40:42;;;;;;;0.00;0.00;;;;;;;18.50;82.61;99304.53;5075194;28;20020;-82
2023/06/20 06:43:17;;;;;;;0.00;0.00;;;;;;;18.69;81.10;99294.81;5072727;28;20027;-82
2023/06/20 06:45:51;;;;;;;0.00;0.00;;;;;;;18.83;80.06;99289.72;5084667;28;20046;-75
2023/06/20 06:48:23;;;;;;;0.00;0.00;;;;;;;18.98;79.87;99304.84;5088922;28;20193;-79
2023/06/20 06:50:48;;;;;;;0.00;0.00;;;;;;;18.88;79.67;99285.94;5080156;28;20028;-76
2023/06/20 06:53:26;;;;;;;;;;;;;;;;;;;;;
2023/06/20 06:55:52;;;;;;;0.00;0.00;;;;;;;18.69;79.21;99286.50;5078602;28;20455;-77
2023/06/20 06:58:17;;;;;;;0.00;0.00;;;;;;;18.79;79.86;99322.88;5078484;28;20107;-77
2023/06/20 07:00:43;;;;;;;0.00;0.00;;;;;;;18.65;79.69;99322.41;5072994;28;20092;-75
2023/06/20 07:03:10;;;;;;;0.00;0.00;;;;;;;18.38;80.35;99318.38;5091975;28;20035;-75
2023/06/20 07:05:36;;;;;;;0.00;0.00;;;;;;;18.29;80.92;99338.66;5077152;28;20049;-76
2023/06/20 07:08:01;;;;;;;0.00;0.00;;;;;;;18.05;80.99;99316.50;5084956;28;20110;-76
2023/06/20 07:10:30;;;;;;;0.00;0.00;;;;;;;18.03;81.73;99325.13;5058891;28;20036;-77
2023/06/20 07:12:55;;;;;;;0.00;0.00;;;;;;;18.22;81.44;99324.56;5071408;28;20051;-78
2023/06/20 07:15:21;;;;;;;0.00;0.00;;;;;;;18.45;81.12;99336.00;5064942;28;20444;-77
2023/06/20 07:17:46;;;;;;;0.00;0.00;;;;;;;18.57;80.81;99326.09;5103957;28;20012;-77
2023/06/20 07:20:12;;;;;;;0.00;0.00;;;;;;;18.80;80.20;99329.19;5074870;28;20473;-77
2023/06/20 07:22:47;;;;;;;0.00;0.00;;;;;;;18.90;79.91;99306.59;5071761;28;20028;-77
2023/06/20 07:25:20;;;;;;;0.00;0.00;;;;;;;19.25;79.01;99317.13;5091405;28;20057;-76
2023/06/20 07:27:46;;;;;;;0.00;0.00;;;;;;;19.50;77.83;99333.66;5083329;28;20023;-79
2023/06/20 07:30:11;;;;;;;0.00;0.00;;;;;;;19.34;77.58;99328.84;5079165;28;20038;-77
2023/06/20 07:32:47;;;;;;;;;;;;;;;;;;;;;
2023/06/20 07:35:22;;;;;;;0.00;0.00;;;;;;;18.81;78.06;99315.00;5109629;28;20389;-77
2023/06/20 07:37:48;;;;;;;0.00;0.00;;;;;;;18.75;78.71;99323.88;5102493;28;20435;-75
2023/06/20 07:40:13;;;;;;;0.00;0.00;;;;;;;18.70;78.81;99349.06;5108703;28;20070;-77
2023/06/20 07:42:39;;;;;;;0.00;0.00;;;;;;;18.60;78.94;99345.59;5060294;28;20028;-76
2023/06/20 07:45:05;;;;;;;0.00;0.00;;;;;;;18.68;79.18;99363.25;5059142;28;20024;-76
2023/06/20 07:47:30;;;;;;;0.00;0.00;;;;;;;18.57;78.88;99349.03;5070777;28;20051;-77
2023/06/20 07:49:56;;;;;;;0.00;0.00;;;;;;;18.59;79.17;99357.03;5073207;28;20051;-77
2023/06/20 07:52:21;;;;;;;0.00;0.00;;;;;;;18.63;78.69;99357.94;5076496;28;20088;-77
2023/06/20 07:54:47;;;;;;;0.00;0.00;;;;;;;18.60;78.33;99353.91;5060891;28;20439;-77
2023/06/20 07:57:24;;;;;;;0.00;0.00;;;;;;;18.56;78.75;99339.13;5056984;28;20031;-75
2023/06/20 07:59:50;;;;;;;0.00;0.00;;;;;;;18.65;78.44;99350.91;5081197;28;21187;-76
2023/06/20 08:02:15;;;;;;;0.00;0.00;;;;;;;18.73;78.04;99360.22;5087672;28;20485;-76
2023/06/20 08:04:41;;;;;;;0.00;0.00;;;;;;;18.75;78.25;99344.09;5083157;28;20047;-77
2023/06/20 08:07:09;;;;;;;0.00;0.00;;;;;;;19.14;77.47;99371.41;5077834;28;20150;-77
2023/06/20 08:09:35;;;;;;;0.00;0.00;;;;;;;19.24;76.57;99370.91;5086089;28;20019;-77
2023/06/20 08:12:00;;;;;;;0.00;0.00;;;;;;;19.15;76.01;99356.41;5059847;27;20110;-78
2023/06/20 08:14:25;;;;;;;0.00;0.00;;;;;;;19.26;75.85;99374.16;5058673;28;20376;-79
2023/06/20 08:16:51;;;;;;;0.00;0.00;;;;;;;19.15;75.84;99357.19;5068661;28;20134;-77
2023/06/20 08:19:17;;;;;;;0.00;0.00;;;;;;;19.26;75.66;99357.53;5085865;28;20072;-77
2023/06/20 08:21:42;;;;;;;0.00;0.00;;;;;;;19.39;74.93;99346.41;5065411;28;20031;-77
2023/06/20 08:24:07;;;;;;;0.00;0.00;;;;;;;19.71;74.70;99369.50;5089731;28;20027;-81
2023/06/20 08:26:33;;;;;;;0.00;0.00;;;;;;;19.76;74.06;99340.72;5074458;28;20031;-77
2023/06/20 08:29:00;;;;;;;0.00;0.00;;;;;;;20.17;73.35;99356.09;5071742;28;20028;-76
2023/06/20 08:31:38;;;;;;;0.00;0.00;;;;;;;20.57;72.12;99357.91;5060660;28;20156;-77
2023/06/20 08:34:04;;;;;;;0.00;0.00;;;;;;;21.04;70.66;99372.94;5070643;28;20039;-77
2023/06/20 08:36:30;;;;;;;0.00;0.00;;;;;;;21.18;69.30;99364.09;5079815;28;20023;-77
2023/06/20 08:38:55;;;;;;;0.00;0.00;;;;;;;21.16;68.69;99354.50;5079269;28;20363;-77
2023/06/20 08:41:28;;;;;;;0.00;0.00;;;;;;;21.27;67.83;99373.03;5101733;28;20036;-75
2023/06/20 08:43:54;;;;;;;0.00;0.00;;;;;;;21.20;67.57;99372.06;5114330;28;20027;-76
2023/06/20 08:46:20;;;;;;;0.00;0.00;;;;;;;21.16;68.04;99371.16;5073466;28;20022;-75
2023/06/20 08:48:48;;;;;;;0.00;0.00;;;;;;;20.92;67.92;99368.28;5090234;28;20019;-77
2023/06/20 08:51:16;;;;;;;0.00;0.00;;;;;;;20.90;68.48;99384.50;5070148;28;20036;-78
2023/06/20 08:53:46;;;;;;;0.00;0.00;;;;;;;20.68;67.97;99385.19;5060957;28;20367;-77
2023/06/20 08:56:13;;;;;;;0.00;0.00;;;;;;;20.50;68.47;99390.25;5055597;28;20534;-77
2023/06/20 08:58:39;;;;;;;0.00;0.00;;;;;;;20.24;69.19;99372.16;5070466;28;20912;-76
2023/06/20 09:01:17;;;;;;;;;;;;;;;;;;;;;
2023/06/20 09:03:55;;;;;;;0.00;0.00;;;;;;;20.29;70.25;99391.31;5078245;28;20056;-82
2023/06/20 09:07:10;;;;;;;0.00;0.00;;;;;;;20.44;69.76;99400.00;5064347;28;20039;-80
2023/06/20 09:09:39;;;;;;;0.00;0.00;;;;;;;20.72;68.96;99402.72;4987950;28;20034;-78
2023/06/20 09:12:07;;;;;;;0.00;0.00;;;;;;;20.89;68.47;99384.88;5069001;28;20027;-77
2023/06/20 09:14:33;;;;;;;0.00;0.00;;;;;;;20.94;67.85;99381.81;5061914;28;20043;-76
2023/06/20 09:17:00;;;;;;;0.00;0.00;;;;;;;21.07;67.90;99390.81;5056656;28;20020;-76
2023/06/20 09:19:42;;;;;;;0.00;0.00;;;;;;;21.20;66.67;99385.97;5088486;28;20031;-76
2023/06/20 09:22:09;;;;;;;0.00;0.00;;;;;;;21.15;66.98;99387.06;5059563;28;20365;-75
2023/06/20 09:24:55;;;;;;;0.00;0.00;;;;;;;21.14;66.49;99384.63;5091908;28;20111;-76
2023/06/20 09:27:21;;;;;;;0.00;0.00;;;;;;;21.38;66.26;99401.06;5061275;28;20181;-75
2023/06/20 09:29:51;;;;;;;0.00;0.00;;;;;;;21.93;65.99;99411.34;5056028;28;20114;-77
2023/06/20 09:32:20;;;;;;;0.00;0.00;;;;;;;22.26;64.99;99398.84;5071077;28;20039;-77
2023/06/20 09:34:46;;;;;;;0.00;0.00;;;;;;;22.68;64.27;99417.53;5098252;28;20020;-77
2023/06/20 09:37:14;;;;;;;0.00;0.00;;;;;;;22.66;62.95;99412.31;5094269;28;20576;-78
2023/06/20 09:39:40;;;;;;;0.00;0.00;;;;;;;22.54;62.77;99428.41;5098910;28;20020;-78
2023/06/20 09:42:11;;;;;;;0.00;0.00;;;;;;;22.43;63.27;99403.16;5044206;28;20047;-76
2023/06/20 09:44:37;;;;;;;0.00;0.00;;;;;;;22.60;62.42;99421.34;5090299;28;20373;-76
2023/06/20 09:47:06;;;;;;;0.00;0.00;;;;;;;22.88;62.28;99423.00;5070394;28;20032;-78
2023/06/20 09:49:45;;;;;;;;;;;;;;;;;;;;;
2023/06/20 09:52:14;;;;;;;0.00;0.00;;;;;;;22.80;61.67;99425.66;5072860;28;20046;-78
2023/06/20 09:54:44;;;;;;;0.00;0.00;;;;;;;22.71;61.73;99425.13;5097568;27;20024;-78
2023/06/20 09:57:14;;;;;;;0.00;0.00;;;;;;;22.69;61.99;99427.47;5096167;27;20019;-78
2023/06/20 09:59:41;;;;;;;0.00;0.00;;;;;;;22.79;62.30;99418.50;5092978;28;20110;-75
2023/06/20 10:02:08;;;;;;;0.00;0.00;;;;;;;22.75;61.38;99431.56;5086999;28;20032;-76
2023/06/20 10:04:42;;;;;;;0.00;0.00;;;;;;;22.57;61.46;99431.25;5069085;28;20055;-77
2023/06/20 10:07:11;;;;;;;0.00;0.00;;;;;;;22.37;62.19;99424.94;5068392;28;20108;-77
2023/06/20 10:09:37;;;;;;;0.00;0.00;;;;;;;22.46;62.56;99435.84;5089357;28;20043;-78
2023/06/20 10:12:04;;;;;;;0.00;0.00;;;;;;;23.10;62.33;99438.94;5080196;28;20036;-77
2023/06/20 10:14:33;;;;;;;0.00;0.00;;;;;;;24.14;60.11;99436.72;5105189;27;20046;-77
2023/06/20 10:17:08;;;;;;;0.00;0.00;;;;;;;24.98;57.73;99415.94;5079378;28;20021;-78
2023/06/20 10:19:51;;;;;;;0.00;0.00;;;;;;;26.09;54.46;99432.53;5066393;28;20078;-76
2023/06/20 10:22:37;;;;;;;0.00;0.00;;;;;;;27.59;48.51;99439.38;5106524;27;20056;-77
2023/06/20 10:25:03;;;;;;;0.00;0.00;;;;;;;29.17;47.12;99439.63;5081860;28;20031;-77
2023/06/20 10:27:31;;;;;;;0.00;0.00;;;;;;;30.48;44.76;99434.06;5113607;27;20103;-76
2023/06/20 10:29:56;;;;;;;0.00;0.00;;;;;;;30.69;41.33;99436.53;5080701;28;20020;-75
2023/06/20 10:32:22;;;;;;;0.00;0.00;;;;;;;30.80;40.78;99451.28;5074659;28;20039;-77
2023/06/20 10:34:50;;;;;;;0.00;0.00;;;;;;;31.17;40.30;99450.69;5077462;28;20039;-78
2023/06/20 10:37:19;;;;;;;0.00;0.00;;;;;;;33.03;39.78;99442.25;5083514;28;20470;-77
2023/06/20 10:39:52;;;;;;;0.00;0.00;;;;;;;36.94;34.21;99440.94;5069533;28;20039;-78
2023/06/20 10:42:39;;;;;;;0.00;0.00;;;;;;;35.47;31.21;99442.56;5072723;28;20025;-76
2023/06/20 10:45:25;;;;;;;0.00;0.00;;;;;;;33.74;33.15;99461.44;5083266;28;20031;-76
2023/06/20 10:48:02;;;;;;;0.00;0.00;;;;;;;32.42;34.94;99455.84;5091613;28;20020;-76
2023/06/20 10:50:28;;;;;;;0.00;0.00;;;;;;;31.42;37.30;99462.31;5081926;28;20024;-71
2023/06/20 10:52:53;;;;;;;0.00;0.00;;;;;;;31.02;37.70;99459.41;5078366;28;20051;-71
2023/06/20 10:55:24;;;;;;;0.00;0.00;;;;;;;29.91;39.54;99465.41;5064161;28;20473;-72
2023/06/20 10:57:50;;;;;;;0.00;0.00;;;;;;;28.81;41.01;99468.06;5073227;28;20027;-72
2023/06/20 11:00:18;;;;;;;0.00;0.00;;;;;;;28.16;42.75;99474.88;5074789;28;20300;-71
2023/06/20 11:02:48;;;;;;;0.00;0.00;;;;;;;27.61;43.60;99475.47;5073023;28;20077;-71
2023/06/20 11:05:14;;;;;;;0.00;0.00;;;;;;;26.67;44.68;99466.28;5079571;28;20136;-72
2023/06/20 11:08:01;;;;;;;0.00;0.00;;;;;;;26.17;46.62;99479.00;5084652;28;20103;-72
2023/06/20 11:10:37;;;;;;;0.00;0.00;;;;;;;25.49;48.22;99476.63;5075392;28;20720;-71
2023/06/20 11:13:06;;;;;;;0.00;0.00;;;;;;;25.13;49.43;99473.59;5081596;28;20425;-72
2023/06/20 11:15:33;;;;;;;0.00;0.00;;;;;;;25.02;49.81;99472.69;5073928;28;20359;-71
2023/06/20 11:18:04;;;;;;;0.00;0.00;;;;;;;24.94;49.92;99487.81;5064250;28;20035;-72
2023/06/20 11:20:35;;;;;;;0.00;0.00;;;;;;;25.46;49.26;99474.63;5071269;28;20048;-72
2023/06/20 11:23:03;;;;;;;0.00;0.00;;;;;;;25.88;48.21;99478.06;5071979;28;20375;-72
2023/06/20 11:25:31;;;;;;;0.00;0.00;;;;;;;25.68;48.13;99485.97;5080311;28;20043;-71
2023/06/20 11:28:03;;;;;;;0.00;0.00;;;;;;;25.38;49.45;99479.38;5083561;28;20012;-73
2023/06/20 11:30:30;;;;;;;0.00;0.00;;;;;;;25.86;49.88;99486.03;5080418;28;20119;-73
2023/06/20 11:33:05;;;;;;;0.00;0.00;;;;;;;30.47;42.54;99492.50;5070787;28;20066;-73
2023/06/20 11:35:41;;;;;;;0.00;0.00;;;;;;;32.94;35.44;99495.88;5088375;28;20723;-72
2023/06/20 11:38:07;;;;;;;0.00;0.00;;;;;;;31.74;35.31;99494.81;5068170;28;20060;-73
2023/06/20 11:40:32;;;;;;;0.00;0.00;;;;;;;32.31;36.14;99500.56;5051394;28;20386;-72
2023/06/20 11:42:58;;;;;;;0.00;0.00;;;;;;;34.17;33.03;99502.72;5079192;28;20038;-73
2023/06/20 11:45:26;;;;;;;0.00;0.00;;;;;;;32.19;34.10;99504.84;5065575;28;20111;-72
2023/06/20 11:48:12;;;;;;;0.00;0.00;;;;;;;30.04;38.02;99502.31;5076708;28;20074;-72
2023/06/20 11:50:43;;;;;;;0.00;0.00;;;;;;;28.92;40.04;99501.78;5072122;28;20069;-73
2023/06/20 11:53:29;;;;;;;0.00;0.00;;;;;;;28.96;39.90;99508.97;5079188;28;20023;-72
2023/06/20 11:56:09;;;;;;;0.00;0.00;;;;;;;27.96;41.60;99504.66;5075661;28;20035;-72
2023/06/20 11:58:45;;;;;;;0.00;0.00;;;;;;;27.31;43.26;99499.97;5079601;28;20474;-72
2023/06/20 12:01:20;;;;;;;0.00;0.00;;;;;;;27.78;41.83;99487.88;5093459;28;20032;-71
2023/06/20 12:04:10;;;;;;;0.00;0.00;;;;;;;28.79;42.11;99505.06;5071112;28;20426;-77
2023/06/20 12:06:37;;;;;;;0.00;0.00;;;;;;;28.21;40.91;99501.75;5083121;28;20077;-76
2023/06/20 12:09:19;;;;;;;0.00;0.00;;;;;;;26.69;43.18;99487.13;5075726;28;20097;-74
2023/06/20 12:11:55;;;;;;;0.00;0.00;;;;;;;25.71;45.74;99490.75;5080614;28;20382;-77
2023/06/20 12:14:47;;;;;;;0.00;0.00;;;;;;;25.16;47.74;99500.78;5073474;28;20603;-77
2023/06/20 12:17:20;;;;;;;0.00;0.00;;;;;;;24.62;49.51;99500.31;5075455;28;20069;-76
2023/06/20 12:19:50;;;;;;;0.00;0.00;;;;;;;24.26;49.85;99499.09;5069438;28;20128;-77
2023/06/20 12:22:15;;;;;;;0.00;0.00;;;;;;;24.44;50.15;99516.84;5100663;27;20077;-77
2023/06/20 12:24:41;;;;;;;0.00;0.00;;;;;;;24.92;49.94;99508.56;5070408;28;20032;-77
2023/06/20 12:27:06;;;;;;;0.00;0.00;;;;;;;25.91;47.66;99506.06;5064111;28;20100;-75
2023/06/20 12:29:35;;;;;;;0.00;0.00;;;;;;;26.21;46.64;99527.44;5069759;28;20026;-76
2023/06/20 12:32:04;;;;;;;0.00;0.00;;;;;;;26.08;46.63;99510.19;5078009;28;20036;-78
2023/06/20 12:34:31;;;;;;;0.00;0.00;;;;;;;26.24;46.21;99534.25;5056000;28;20086;-77
2023/06/20 12:36:57;;;;;;;0.00;0.00;;;;;;;27.63;44.61;99521.59;5062519;28;20055;-77
2023/06/20 12:39:22;;;;;;;0.00;0.00;;;;;;;29.71;38.81;99517.94;5048618;28;20036;-77
2023/06/20 12:41:50;;;;;;;0.00;0.00;;;;;;;29.99;37.19;99530.94;5050566;28;20077;-76